createdAt,value
2022-07-29T00:02:14.006Z,99605.19
2022-07-29T00:04:42.646Z,99604.00
2022-07-29T00:07:11.578Z,99601.66
2022-07-29T00:09:50.913Z,99599.88
2022-07-29T00:12:26.125Z,99601.81
2022-07-29T00:14:57.550Z,99591.78
2022-07-29T00:17:26.592Z,99587.13
2022-07-29T00:19:55.172Z,99587.66
2022-07-29T00:22:23.827Z,99588.69
2022-07-29T00:24:52.649Z,99584.28
2022-07-29T00:27:21.204Z,99591.25
2022-07-29T00:29:49.831Z,99583.25
2022-07-29T00:32:18.326Z,99593.00
2022-07-29T00:35:07.015Z,99591.41
2022-07-29T00:37:35.587Z,99590.78
2022-07-29T00:40:05.410Z,99589.75
2022-07-29T00:42:53.435Z,99591.81
2022-07-29T00:45:23.341Z,99589.41
2022-07-29T00:47:52.018Z,99583.25
2022-07-29T00:50:20.878Z,99594.56
2022-07-29T00:52:49.771Z,99588.53
2022-07-29T00:55:19.101Z,99588.19
2022-07-29T00:57:48.469Z,99588.34
2022-07-29T01:00:27.252Z,99582.03
2022-07-29T01:02:55.933Z,99577.75
2022-07-29T01:05:49.883Z,99581.81
2022-07-29T01:08:19.221Z,99565.75
2022-07-29T01:10:48.783Z,99571.50
2022-07-29T01:13:18.405Z,99576.84
2022-07-29T01:16:02.763Z,99571.22
2022-07-29T01:18:43.642Z,99573.63
2022-07-29T01:21:39.491Z,99573.97
2022-07-29T01:25:01.592Z,99561.59
2022-07-29T01:28:06.686Z,99567.47
2022-07-29T01:30:40.826Z,99561.19
2022-07-29T01:33:36.949Z,99558.47
2022-07-29T01:36:18.715Z,99564.25
2022-07-29T01:39:07.900Z,99565.31
2022-07-29T01:41:44.672Z,99565.75
2022-07-29T01:44:28.065Z,99564.72
2022-07-29T01:47:07.271Z,99572.00
2022-07-29T01:49:44.483Z,99568.53
2022-07-29T01:52:43.460Z,99568.44
2022-07-29T01:55:17.741Z,99571.28
2022-07-29T01:57:50.844Z,99565.94
2022-07-29T02:00:19.401Z,99567.59
2022-07-29T02:02:50.542Z,99573.56
2022-07-29T02:05:23.407Z,99564.69
2022-07-29T02:07:54.757Z,99564.97
2022-07-29T02:10:29.816Z,99553.59
2022-07-29T02:13:00.028Z,99557.38
2022-07-29T02:15:33.941Z,99559.47
2022-07-29T02:18:19.231Z,99553.84
2022-07-29T02:20:54.762Z,99551.38
2022-07-29T02:23:25.566Z,99550.69
2022-07-29T02:25:58.473Z,99555.13
2022-07-29T02:28:32.779Z,99545.94
2022-07-29T02:31:04.810Z,99547.53
2022-07-29T02:33:34.066Z,99555.66
2022-07-29T02:36:04.151Z,99561.09
2022-07-29T02:38:52.155Z,99552.00
2022-07-29T02:41:37.408Z,99558.31
2022-07-29T02:44:17.786Z,99561.34
2022-07-29T02:47:07.044Z,99565.97
2022-07-29T02:50:06.267Z,99558.81
2022-07-29T02:53:01.235Z,99557.19
2022-07-29T02:55:56.870Z,99557.03
2022-07-29T02:58:46.537Z,99551.72
2022-07-29T03:01:22.951Z,99548.88
2022-07-29T03:03:55.847Z,99548.44
2022-07-29T03:06:38.005Z,99548.97
2022-07-29T03:09:13.386Z,99547.81
2022-07-29T03:11:49.783Z,99552.28
2022-07-29T03:14:21.567Z,99545.34
2022-07-29T03:16:52.339Z,99544.59
2022-07-29T03:19:21.745Z,99549.22
2022-07-29T03:21:50.030Z,99546.78
2022-07-29T03:24:36.462Z,99549.97
2022-07-29T03:27:06.577Z,99541.00
2022-07-29T03:29:35.920Z,99546.41
2022-07-29T03:32:08.310Z,99552.19
2022-07-29T03:34:39.261Z,99555.41
2022-07-29T03:37:08.167Z,99553.00
2022-07-29T03:39:42.990Z,99552.91
2022-07-29T03:42:16.584Z,99549.13
2022-07-29T03:44:49.713Z,99551.22
2022-07-29T03:47:43.580Z,99556.09
2022-07-29T03:50:17.805Z,99555.22
2022-07-29T03:52:48.571Z,99557.78
2022-07-29T03:55:18.175Z,99561.00
2022-07-29T03:57:48.563Z,99560.28
2022-07-29T04:00:17.811Z,99559.75
2022-07-29T04:02:49.813Z,99558.66
2022-07-29T04:05:20.331Z,99565.53
2022-07-29T04:07:49.989Z,99559.19
2022-07-29T04:10:30.176Z,99556.75
2022-07-29T04:13:01.714Z,99559.25
2022-07-29T04:15:31.175Z,99561.13
2022-07-29T04:18:01.011Z,99559.09
2022-07-29T04:20:30.656Z,99561.28
2022-07-29T04:23:00.094Z,99559.28
2022-07-29T04:25:29.670Z,99561.69
2022-07-29T04:28:01.297Z,99565.09
2022-07-29T04:30:32.182Z,99556.09
2022-07-29T04:33:03.329Z,99564.78
2022-07-29T04:35:45.694Z,99566.53
2022-07-29T04:38:19.300Z,99567.63
2022-07-29T04:40:50.565Z,99569.50
2022-07-29T04:43:22.560Z,99564.84
2022-07-29T04:45:52.161Z,99569.84
2022-07-29T04:48:25.305Z,99567.47
2022-07-29T04:50:58.160Z,99570.63
2022-07-29T04:53:27.411Z,99581.38
2022-07-29T04:55:56.266Z,99580.34
2022-07-29T04:58:24.756Z,99580.94
2022-07-29T05:00:53.405Z,99572.75
2022-07-29T05:03:22.050Z,99582.66
2022-07-29T05:05:51.532Z,99586.50
2022-07-29T05:08:20.213Z,99583.28
2022-07-29T05:10:49.086Z,99595.84
2022-07-29T05:13:17.646Z,99594.50
2022-07-29T05:15:46.393Z,99591.09
2022-07-29T05:18:15.271Z,99591.09
2022-07-29T05:20:44.052Z,99593.81
2022-07-29T05:23:13.949Z,99592.16
2022-07-29T05:25:44.283Z,99592.47
2022-07-29T05:28:13.497Z,99587.13
2022-07-29T05:30:42.300Z,99590.03
2022-07-29T05:33:35.199Z,99592.03
2022-07-29T05:36:01.137Z,99596.03
2022-07-29T05:38:30.642Z,99597.19
2022-07-29T05:41:00.784Z,99597.25
2022-07-29T05:43:30.684Z,99593.22
2022-07-29T05:45:59.638Z,99604.38
2022-07-29T05:48:28.717Z,99599.38
2022-07-29T05:50:57.346Z,99593.75
2022-07-29T05:53:25.887Z,99593.63
2022-07-29T05:55:54.552Z,99589.53
2022-07-29T05:58:23.175Z,99593.25
2022-07-29T06:00:52.006Z,99594.38
2022-07-29T06:03:20.436Z,99593.69
2022-07-29T06:05:49.075Z,99592.19
2022-07-29T06:08:18.328Z,99591.34
2022-07-29T06:10:47.173Z,99593.91
2022-07-29T06:13:17.126Z,99597.19
2022-07-29T06:15:45.819Z,99593.47
2022-07-29T06:18:15.056Z,99607.16
2022-07-29T06:20:44.275Z,99604.63
2022-07-29T06:23:12.704Z,99600.66
2022-07-29T06:25:42.466Z,99606.59
2022-07-29T06:28:12.156Z,99611.66
2022-07-29T06:30:41.789Z,99610.66
2022-07-29T06:33:10.385Z,99618.59
2022-07-29T06:35:41.812Z,99620.09
2022-07-29T06:38:31.491Z,99625.34
2022-07-29T06:41:01.567Z,99629.38
2022-07-29T06:43:50.135Z,99624.13
2022-07-29T06:46:22.620Z,99626.47
2022-07-29T06:48:53.347Z,99624.97
2022-07-29T06:51:24.053Z,99632.97
2022-07-29T06:54:00.072Z,99634.88
2022-07-29T06:56:38.496Z,99634.34
2022-07-29T06:59:10.719Z,99636.69
2022-07-29T07:01:43.339Z,99635.03
2022-07-29T07:04:14.775Z,99633.81
2022-07-29T07:06:43.744Z,99635.69
2022-07-29T07:09:12.404Z,99635.28
2022-07-29T07:11:41.095Z,99632.59
2022-07-29T07:14:09.645Z,99639.25
2022-07-29T07:16:38.317Z,99643.38
2022-07-29T07:19:06.916Z,99642.41
2022-07-29T07:21:36.120Z,99637.53
2022-07-29T07:24:05.512Z,99635.50
2022-07-29T07:26:34.061Z,99636.81
2022-07-29T07:29:02.669Z,99634.78
2022-07-29T07:31:31.410Z,99629.97
2022-07-29T07:34:00.204Z,99620.84
2022-07-29T07:36:28.738Z,99627.16
2022-07-29T07:38:57.286Z,99629.03
2022-07-29T07:41:25.917Z,99636.38
2022-07-29T07:44:00.868Z,99635.69
2022-07-29T07:46:29.548Z,99638.69
2022-07-29T07:48:58.216Z,99632.84
2022-07-29T07:51:26.754Z,99629.72
2022-07-29T07:53:55.324Z,99628.28
2022-07-29T07:56:26.307Z,99622.06
2022-07-29T07:58:55.153Z,99623.09
2022-07-29T08:01:24.234Z,99619.06
2022-07-29T08:03:52.718Z,99626.25
2022-07-29T08:06:21.251Z,99624.06
2022-07-29T08:08:49.778Z,99628.91
2022-07-29T08:11:18.458Z,99631.09
2022-07-29T08:13:48.569Z,99632.94
2022-07-29T08:16:17.176Z,99624.09
2022-07-29T08:18:47.280Z,99629.06
2022-07-29T08:21:17.634Z,99627.72
2022-07-29T08:23:57.597Z,99631.72
2022-07-29T08:26:28.438Z,99626.63
2022-07-29T08:28:57.774Z,99623.88
2022-07-29T08:31:27.282Z,99625.91
2022-07-29T08:33:57.408Z,99627.69
2022-07-29T08:36:28.063Z,99621.75
2022-07-29T08:38:56.684Z,99635.31
2022-07-29T08:41:25.686Z,99635.34
2022-07-29T08:43:54.990Z,99631.88
2022-07-29T08:46:24.717Z,99630.34
2022-07-29T08:48:54.441Z,99633.25
2022-07-29T08:51:23.726Z,99620.41
2022-07-29T08:53:52.617Z,99628.75
2022-07-29T08:56:22.323Z,99619.59
2022-07-29T08:58:52.715Z,99619.78
2022-07-29T09:01:35.563Z,99616.97
2022-07-29T09:04:11.672Z,99624.03
2022-07-29T09:06:47.814Z,99607.81
2022-07-29T09:09:17.251Z,99612.69
2022-07-29T09:11:46.008Z,99609.41
2022-07-29T09:14:16.340Z,99611.03
2022-07-29T09:16:57.386Z,99608.75
2022-07-29T09:19:38.314Z,99611.75
2022-07-29T09:22:13.831Z,99616.13
2022-07-29T09:24:47.925Z,99619.00
2022-07-29T09:27:26.949Z,99616.78
2022-07-29T09:30:14.547Z,99606.56
2022-07-29T09:33:04.529Z,99597.31
2022-07-29T09:35:33.085Z,99598.94
2022-07-29T09:38:15.258Z,99605.97
2022-07-29T09:41:05.473Z,99599.00
2022-07-29T09:43:35.837Z,99595.38
2022-07-29T09:46:15.146Z,99592.84
2022-07-29T09:48:43.691Z,99592.34
2022-07-29T09:51:26.994Z,99586.94
2022-07-29T09:53:58.537Z,99588.78
2022-07-29T09:56:43.781Z,99578.38
2022-07-29T09:59:13.229Z,99579.88
2022-07-29T10:01:42.063Z,99585.47
2022-07-29T10:04:11.066Z,99580.34
2022-07-29T10:07:05.036Z,99572.81
2022-07-29T10:09:35.268Z,99575.53
2022-07-29T10:12:16.842Z,99573.88
2022-07-29T10:14:45.370Z,99574.63
2022-07-29T10:17:19.997Z,99571.38
2022-07-29T10:19:50.155Z,99566.28
2022-07-29T10:22:36.860Z,99566.13
2022-07-29T10:25:08.556Z,99565.88
2022-07-29T10:27:38.595Z,99568.91
2022-07-29T10:30:09.121Z,99560.44
2022-07-29T10:33:15.358Z,99563.66
2022-07-29T10:36:37.130Z,99554.56
2022-07-29T10:39:44.548Z,99557.88
2022-07-29T10:42:34.476Z,99547.09
2022-07-29T10:45:05.925Z,99555.47
2022-07-29T10:47:35.402Z,99555.00
2022-07-29T10:50:11.677Z,99556.13
2022-07-29T10:53:00.033Z,99553.09
2022-07-29T10:55:45.672Z,99544.94
2022-07-29T10:58:19.973Z,99547.56
2022-07-29T11:00:56.381Z,99545.66
2022-07-29T11:03:59.000Z,99544.06
2022-07-29T11:07:05.592Z,99536.88
2022-07-29T11:09:37.636Z,99541.84
2022-07-29T11:12:40.750Z,99539.56
2022-07-29T11:15:21.905Z,99533.53
2022-07-29T11:17:59.552Z,99537.91
2022-07-29T11:20:49.862Z,99525.47
2022-07-29T11:23:36.856Z,99525.44
2022-07-29T11:26:26.174Z,99524.44
2022-07-29T11:29:23.302Z,99521.94
2022-07-29T11:31:57.145Z,99516.78
2022-07-29T11:34:31.492Z,99520.59
2022-07-29T11:37:10.297Z,99517.06
2022-07-29T11:39:55.840Z,99511.47
2022-07-29T11:42:32.332Z,99500.06
2022-07-29T11:45:43.394Z,99503.84
2022-07-29T11:48:31.259Z,99496.84
2022-07-29T11:50:59.561Z,99504.25
2022-07-29T11:53:29.125Z,99502.56
2022-07-29T11:56:03.484Z,99504.78
2022-07-29T11:58:32.873Z,99498.28
2022-07-29T12:01:04.097Z,99488.00
2022-07-29T12:03:36.825Z,99484.38
2022-07-29T12:06:18.003Z,99484.31
2022-07-29T12:08:47.360Z,99490.44
2022-07-29T12:11:23.425Z,99487.59
2022-07-29T12:13:53.822Z,99481.97
2022-07-29T12:16:25.653Z,99478.13
2022-07-29T12:19:05.548Z,99477.41
2022-07-29T12:21:56.549Z,99461.03
2022-07-29T12:24:27.411Z,99466.16
2022-07-29T12:27:02.476Z,99459.16
2022-07-29T12:29:34.746Z,99460.44
2022-07-29T12:32:14.690Z,99451.41
2022-07-29T12:34:48.226Z,99459.78
2022-07-29T12:37:17.338Z,99457.78
2022-07-29T12:39:46.484Z,99456.09
2022-07-29T12:42:19.179Z,99457.78
2022-07-29T12:44:52.420Z,99444.47
2022-07-29T12:47:21.841Z,99445.47
2022-07-29T12:49:52.309Z,99442.50
2022-07-29T12:52:33.945Z,99435.25
2022-07-29T12:55:04.418Z,99435.94
2022-07-29T12:57:37.671Z,99422.97
2022-07-29T13:00:14.236Z,99430.22
2022-07-29T13:02:44.888Z,99428.22
2022-07-29T13:05:13.926Z,99425.63
2022-07-29T13:07:55.852Z,99415.06
2022-07-29T13:10:26.235Z,99418.13
2022-07-29T13:13:11.398Z,99417.69
2022-07-29T13:16:08.733Z,99417.25
2022-07-29T13:18:37.748Z,99415.16
2022-07-29T13:21:18.872Z,99410.94
2022-07-29T13:23:47.492Z,99394.97
2022-07-29T13:26:20.183Z,99399.47
2022-07-29T13:28:48.559Z,99388.84
2022-07-29T13:31:16.983Z,99397.13
2022-07-29T13:33:45.364Z,99383.44
2022-07-29T13:36:13.797Z,99387.94
2022-07-29T13:38:42.247Z,99387.56
2022-07-29T13:41:12.003Z,99380.72
2022-07-29T13:43:40.643Z,99377.88
2022-07-29T13:46:09.460Z,99370.09
2022-07-29T13:48:38.034Z,99366.72
2022-07-29T13:51:06.439Z,99364.97
2022-07-29T13:53:34.865Z,99365.28
2022-07-29T13:56:03.696Z,99365.66
2022-07-29T13:58:32.365Z,99362.09
2022-07-29T14:01:01.787Z,99367.47
2022-07-29T14:03:30.404Z,99366.38
2022-07-29T14:06:01.373Z,99362.69
2022-07-29T14:08:29.949Z,99362.19
2022-07-29T14:10:58.425Z,99359.53
2022-07-29T14:13:26.923Z,99355.72
2022-07-29T14:15:55.479Z,99348.63
2022-07-29T14:18:23.959Z,99362.88
2022-07-29T14:20:52.500Z,99349.16
2022-07-29T14:23:21.030Z,99337.88
2022-07-29T14:25:49.635Z,99346.75
2022-07-29T14:28:18.268Z,99335.97
2022-07-29T14:30:46.767Z,99344.66
2022-07-29T14:33:16.016Z,99338.63
2022-07-29T14:35:46.507Z,99335.19
2022-07-29T14:38:15.039Z,99336.03
2022-07-29T14:40:43.430Z,99325.75
2022-07-29T14:43:11.929Z,99324.31
2022-07-29T14:45:41.398Z,99322.41
2022-07-29T14:48:11.070Z,99323.69
2022-07-29T14:50:39.907Z,99321.25
2022-07-29T14:53:08.440Z,99319.06
2022-07-29T14:55:37.095Z,99321.34
2022-07-29T14:58:10.929Z,99315.13
2022-07-29T15:00:40.814Z,99307.56
2022-07-29T15:03:12.200Z,99296.94
2022-07-29T15:05:40.628Z,99303.06
2022-07-29T15:08:09.337Z,99301.06
2022-07-29T15:10:37.857Z,99299.81
2022-07-29T15:13:06.445Z,99299.41
2022-07-29T15:15:35.077Z,99297.56
2022-07-29T15:18:04.001Z,99294.88
2022-07-29T15:20:32.729Z,99297.88
2022-07-29T15:23:03.669Z,99287.25
2022-07-29T15:25:34.083Z,99281.88
2022-07-29T15:28:04.070Z,99291.25
2022-07-29T15:30:34.459Z,99288.53
2022-07-29T15:33:04.725Z,99284.00
2022-07-29T15:35:33.672Z,99277.59
2022-07-29T15:38:09.557Z,99278.44
2022-07-29T15:40:44.711Z,99274.34
2022-07-29T15:43:13.427Z,99276.31
2022-07-29T15:46:06.807Z,99274.25
2022-07-29T15:48:40.243Z,99264.59
2022-07-29T15:51:08.907Z,99260.97
2022-07-29T15:53:37.464Z,99267.16
2022-07-29T15:56:06.232Z,99273.88
2022-07-29T15:58:34.655Z,99271.13
2022-07-29T16:01:03.177Z,99272.47
2022-07-29T16:03:31.746Z,99271.34
2022-07-29T16:06:00.349Z,99276.38
2022-07-29T16:08:28.868Z,99257.34
2022-07-29T16:10:57.460Z,99260.78
2022-07-29T16:13:25.874Z,99266.06
2022-07-29T16:16:02.036Z,99259.56
2022-07-29T16:18:31.635Z,99254.56
2022-07-29T16:21:00.209Z,99255.97
2022-07-29T16:23:28.706Z,99252.22
2022-07-29T16:26:00.133Z,99251.06
2022-07-29T16:28:31.004Z,99253.63
2022-07-29T16:30:59.878Z,99255.16
2022-07-29T16:33:28.791Z,99259.94
2022-07-29T16:36:18.847Z,99260.78
2022-07-29T16:38:48.142Z,99258.69
2022-07-29T16:41:16.732Z,99258.81
2022-07-29T16:43:45.323Z,99251.91
2022-07-29T16:46:18.835Z,99251.53
2022-07-29T16:48:48.862Z,99249.34
2022-07-29T16:51:17.399Z,99260.81
2022-07-29T16:53:45.970Z,99260.41
2022-07-29T16:56:18.743Z,99254.41
2022-07-29T16:58:47.396Z,99258.72
2022-07-29T17:01:17.301Z,99262.22
2022-07-29T17:04:04.078Z,99267.78
2022-07-29T17:06:38.203Z,99264.28
2022-07-29T17:09:09.893Z,99266.28
2022-07-29T17:11:52.882Z,99262.66
2022-07-29T17:14:29.460Z,99259.69
2022-07-29T17:17:01.988Z,99262.59
2022-07-29T17:19:35.590Z,99261.75
2022-07-29T17:22:15.496Z,99256.97
2022-07-29T17:24:45.496Z,99257.38
2022-07-29T17:27:14.893Z,99257.78
2022-07-29T17:29:43.762Z,99258.28
2022-07-29T17:32:12.620Z,99258.34
2022-07-29T17:34:43.156Z,99255.56
2022-07-29T17:37:13.042Z,99249.59
2022-07-29T17:39:43.242Z,99235.31
2022-07-29T17:42:14.708Z,99238.44
2022-07-29T17:44:43.423Z,99240.66
2022-07-29T17:47:15.934Z,99242.34
2022-07-29T17:49:47.407Z,99238.59
2022-07-29T17:52:18.493Z,99250.53
2022-07-29T17:54:49.309Z,99243.53
2022-07-29T17:57:17.899Z,99249.09
2022-07-29T17:59:46.515Z,99253.41
2022-07-29T18:02:15.108Z,99251.59
2022-07-29T18:04:44.546Z,99253.53
2022-07-29T18:07:14.137Z,99250.94
2022-07-29T18:09:42.843Z,99247.59
2022-07-29T18:12:11.669Z,99245.78
2022-07-29T18:14:40.237Z,99247.69
2022-07-29T18:17:08.870Z,99243.50
2022-07-29T18:19:37.541Z,99247.69
2022-07-29T18:22:07.550Z,99260.03
2022-07-29T18:24:36.229Z,99256.47
2022-07-29T18:27:08.243Z,99255.19
2022-07-29T18:29:37.027Z,99254.97
2022-07-29T18:32:06.518Z,99261.59
2022-07-29T18:34:35.228Z,99259.09
2022-07-29T18:37:03.796Z,99261.66
2022-07-29T18:39:32.255Z,99263.59
2022-07-29T18:42:00.825Z,99260.00
2022-07-29T18:44:29.419Z,99267.09
2022-07-29T18:46:58.429Z,99269.13
2022-07-29T18:49:27.843Z,99268.69
2022-07-29T18:51:57.263Z,99273.50
2022-07-29T18:54:25.838Z,99269.63
2022-07-29T18:56:54.409Z,99278.59
2022-07-29T18:59:23.259Z,99283.25
2022-07-29T19:01:52.176Z,99284.13
2022-07-29T19:04:20.956Z,99279.97
2022-07-29T19:06:49.815Z,99285.56
2022-07-29T19:09:19.258Z,99285.16
2022-07-29T19:11:48.985Z,99288.22
2022-07-29T19:14:19.565Z,99285.47
2022-07-29T19:16:50.980Z,99288.84
2022-07-29T19:19:19.933Z,99280.78
2022-07-29T19:21:49.339Z,99283.72
2022-07-29T19:24:17.768Z,99290.09
2022-07-29T19:26:49.313Z,99285.56
2022-07-29T19:29:18.194Z,99287.97
2022-07-29T19:31:47.183Z,99288.16
2022-07-29T19:34:15.723Z,99284.03
2022-07-29T19:36:45.148Z,99291.25
2022-07-29T19:39:13.721Z,99297.63
2022-07-29T19:41:42.435Z,99290.91
2022-07-29T19:44:11.692Z,99298.66
2022-07-29T19:46:40.579Z,99295.03
2022-07-29T19:49:10.285Z,99294.81
2022-07-29T19:51:38.891Z,99292.72
2022-07-29T19:54:08.605Z,99286.69
2022-07-29T19:56:42.254Z,99286.00
2022-07-29T19:59:11.024Z,99282.25
2022-07-29T20:01:41.005Z,99277.97
2022-07-29T20:04:09.678Z,99281.25
2022-07-29T20:06:38.261Z,99284.91
2022-07-29T20:09:06.887Z,99297.69
2022-07-29T20:11:37.192Z,99286.06
2022-07-29T20:14:06.690Z,99287.63
2022-07-29T20:16:36.084Z,99291.81
2022-07-29T20:19:05.507Z,99295.72
2022-07-29T20:21:34.127Z,99293.19
2022-07-29T20:24:07.664Z,99289.34
2022-07-29T20:26:39.161Z,99299.56
2022-07-29T20:29:07.944Z,99290.69
2022-07-29T20:31:37.041Z,99300.00
2022-07-29T20:34:05.905Z,99295.75
2022-07-29T20:36:34.545Z,99303.84
2022-07-29T20:39:03.534Z,99297.00
2022-07-29T20:41:34.022Z,99296.59
2022-07-29T20:44:03.915Z,99290.03
2022-07-29T20:46:32.955Z,99295.75
2022-07-29T20:49:01.723Z,99297.47
2022-07-29T20:51:31.076Z,99304.69
2022-07-29T20:54:04.829Z,99301.75
2022-07-29T20:56:33.530Z,99302.59
2022-07-29T20:59:03.290Z,99317.44
2022-07-29T21:01:32.012Z,99319.97
2022-07-29T21:04:03.210Z,99321.03
2022-07-29T21:06:32.831Z,99311.03
2022-07-29T21:09:01.604Z,99311.88
2022-07-29T21:11:43.777Z,99314.03
2022-07-29T21:14:37.304Z,99320.38
2022-07-29T21:17:07.538Z,99310.41
2022-07-29T21:19:36.223Z,99314.00
2022-07-29T21:22:05.023Z,99306.38
2022-07-29T21:24:33.748Z,99317.78
2022-07-29T21:27:21.985Z,99323.75
2022-07-29T21:29:50.700Z,99325.63
2022-07-29T21:32:27.332Z,99333.91
2022-07-29T21:34:59.277Z,99339.81
2022-07-29T21:37:28.248Z,99334.75
2022-07-29T21:39:57.266Z,99343.16
2022-07-29T21:42:25.978Z,99341.94
2022-07-29T21:44:55.079Z,99348.59
2022-07-29T21:47:23.700Z,99356.56
2022-07-29T21:49:53.087Z,99357.41
2022-07-29T21:52:21.664Z,99356.03
2022-07-29T21:54:50.485Z,99360.03
2022-07-29T21:57:19.063Z,99367.03
2022-07-29T21:59:47.649Z,99376.78
2022-07-29T22:02:16.256Z,99377.13
2022-07-29T22:04:44.825Z,99381.53
2022-07-29T22:07:13.375Z,99381.03
2022-07-29T22:09:42.008Z,99376.09
2022-07-29T22:12:10.804Z,99389.84
2022-07-29T22:14:39.413Z,99387.63
2022-07-29T22:17:09.218Z,99391.25
2022-07-29T22:19:37.830Z,99382.66
2022-07-29T22:22:06.356Z,99387.91
2022-07-29T22:24:34.887Z,99386.25
2022-07-29T22:27:04.022Z,99384.03
2022-07-29T22:29:32.647Z,99391.03
2022-07-29T22:32:01.348Z,99386.03
2022-07-29T22:34:37.125Z,99387.22
2022-07-29T22:37:06.851Z,99385.91
2022-07-29T22:39:35.560Z,99388.63
2022-07-29T22:42:04.587Z,99387.78
2022-07-29T22:44:33.288Z,99396.38
2022-07-29T22:47:02.297Z,99388.63
2022-07-29T22:49:31.332Z,99387.38
2022-07-29T22:52:00.513Z,99383.13
2022-07-29T22:54:29.191Z,99375.09
2022-07-29T22:56:57.923Z,99374.81
2022-07-29T22:59:26.826Z,99382.41
2022-07-29T23:01:55.465Z,99384.44
2022-07-29T23:04:24.061Z,99378.41
2022-07-29T23:06:52.705Z,99375.00
2022-07-29T23:09:21.302Z,99372.53
2022-07-29T23:11:49.890Z,99374.47
2022-07-29T23:14:18.484Z,99367.28
2022-07-29T23:16:47.026Z,99364.34
2022-07-29T23:19:15.649Z,99356.31
2022-07-29T23:21:44.261Z,99362.38
2022-07-29T23:24:12.884Z,99355.75
2022-07-29T23:26:41.531Z,99359.03
2022-07-29T23:29:10.506Z,99349.56
2022-07-29T23:31:39.455Z,99347.13
2022-07-29T23:34:11.244Z,99354.50
2022-07-29T23:36:39.830Z,99353.66
2022-07-29T23:39:13.445Z,99348.00
2022-07-29T23:41:42.786Z,99358.13
2022-07-29T23:44:11.279Z,99356.94
2022-07-29T23:46:39.898Z,99352.97
2022-07-29T23:49:08.619Z,99348.44
2022-07-29T23:51:37.123Z,99350.25
2022-07-29T23:54:05.696Z,99356.59
2022-07-29T23:56:34.215Z,99355.81
2022-07-29T23:59:05.679Z,99357.34
